sensor_id;sensor_type;location;lat;lon;timestamp;P1;durP1;ratioP1;P2;durP2;ratioP2
74593;SDS011;63097;51.872;4.460;2023-03-12T00:01:53;7.60;;;3.58;;
74593;SDS011;63097;51.872;4.460;2023-03-12T00:04:19;17.42;;;4.15;;
74593;SDS011;63097;51.872;4.460;2023-03-12T00:06:44;8.52;;;3.72;;
74593;SDS011;63097;51.872;4.460;2023-03-12T00:09:09;8.98;;;3.30;;
74593;SDS011;63097;51.872;4.460;2023-03-12T00:11:35;7.05;;;3.65;;
74593;SDS011;63097;51.872;4.460;2023-03-12T00:14:00;9.13;;;3.55;;
74593;SDS011;63097;51.872;4.460;2023-03-12T00:16:26;8.63;;;3.53;;
74593;SDS011;63097;51.872;4.460;2023-03-12T00:18:52;6.28;;;3.08;;
74593;SDS011;63097;51.872;4.460;2023-03-12T00:21:19;8.02;;;3.00;;
74593;SDS011;63097;51.872;4.460;2023-03-12T00:23:45;2.38;;;1.33;;
74593;SDS011;63097;51.872;4.460;2023-03-12T00:26:12;18.88;;;4.05;;
74593;SDS011;63097;51.872;4.460;2023-03-12T00:28:38;9.52;;;3.40;;
74593;SDS011;63097;51.872;4.460;2023-03-12T00:31:20;11.07;;;4.07;;
74593;SDS011;63097;51.872;4.460;2023-03-12T00:33:47;6.63;;;3.03;;
74593;SDS011;63097;51.872;4.460;2023-03-12T00:36:13;6.43;;;3.50;;
74593;SDS011;63097;51.872;4.460;2023-03-12T00:38:38;14.00;;;3.72;;
74593;SDS011;63097;51.872;4.460;2023-03-12T00:41:03;8.90;;;3.70;;
74593;SDS011;63097;51.872;4.460;2023-03-12T00:43:29;12.63;;;4.07;;
74593;SDS011;63097;51.872;4.460;2023-03-12T00:45:54;16.80;;;4.15;;
74593;SDS011;63097;51.872;4.460;2023-03-12T00:48:19;9.75;;;4.28;;
74593;SDS011;63097;51.872;4.460;2023-03-12T00:50:45;7.70;;;3.80;;
74593;SDS011;63097;51.872;4.460;2023-03-12T00:53:10;6.40;;;3.88;;
74593;SDS011;63097;51.872;4.460;2023-03-12T00:55:35;19.13;;;4.25;;
74593;SDS011;63097;51.872;4.460;2023-03-12T00:58:01;14.52;;;4.72;;
74593;SDS011;63097;51.872;4.460;2023-03-12T01:00:26;21.30;;;3.90;;
74593;SDS011;63097;51.872;4.460;2023-03-12T01:02:51;6.85;;;3.20;;
74593;SDS011;63097;51.872;4.460;2023-03-12T01:05:17;6.40;;;3.42;;
74593;SDS011;63097;51.872;4.460;2023-03-12T01:07:42;5.95;;;3.20;;
74593;SDS011;63097;51.872;4.460;2023-03-12T01:10:08;6.28;;;3.28;;
74593;SDS011;63097;51.872;4.460;2023-03-12T01:12:35;11.20;;;3.65;;
74593;SDS011;63097;51.872;4.460;2023-03-12T01:15:01;8.07;;;3.28;;
74593;SDS011;63097;51.872;4.460;2023-03-12T01:17:26;7.38;;;3.22;;
74593;SDS011;63097;51.872;4.460;2023-03-12T01:19:52;6.95;;;3.60;;
74593;SDS011;63097;51.872;4.460;2023-03-12T01:22:17;8.13;;;3.95;;
74593;SDS011;63097;51.872;4.460;2023-03-12T01:24:42;8.38;;;3.15;;
74593;SDS011;63097;51.872;4.460;2023-03-12T01:27:07;8.15;;;3.33;;
74593;SDS011;63097;51.872;4.460;2023-03-12T01:29:33;11.88;;;3.10;;
74593;SDS011;63097;51.872;4.460;2023-03-12T01:31:58;9.90;;;3.97;;
74593;SDS011;63097;51.872;4.460;2023-03-12T01:34:23;11.48;;;4.55;;
74593;SDS011;63097;51.872;4.460;2023-03-12T01:36:49;15.13;;;3.85;;
74593;SDS011;63097;51.872;4.460;2023-03-12T01:39:14;5.75;;;2.92;;
74593;SDS011;63097;51.872;4.460;2023-03-12T01:41:39;7.43;;;3.20;;
74593;SDS011;63097;51.872;4.460;2023-03-12T01:44:05;6.47;;;3.38;;
74593;SDS011;63097;51.872;4.460;2023-03-12T01:46:35;10.60;;;3.58;;
74593;SDS011;63097;51.872;4.460;2023-03-12T01:52:25;12.45;;;2.80;;
74593;SDS011;63097;51.872;4.460;2023-03-12T01:54:46;10.70;;;3.08;;
74593;SDS011;63097;51.872;4.460;2023-03-12T01:57:25;7.53;;;2.78;;
74593;SDS011;63097;51.872;4.460;2023-03-12T01:59:56;9.20;;;3.47;;
74593;SDS011;63097;51.872;4.460;2023-03-12T02:02:25;7.70;;;2.88;;
74593;SDS011;63097;51.872;4.460;2023-03-12T02:04:55;9.45;;;3.08;;
74593;SDS011;63097;51.872;4.460;2023-03-12T02:07:46;6.03;;;3.20;;
74593;SDS011;63097;51.872;4.460;2023-03-12T02:10:12;10.10;;;3.13;;
74593;SDS011;63097;51.872;4.460;2023-03-12T02:12:38;10.32;;;2.92;;
74593;SDS011;63097;51.872;4.460;2023-03-12T02:15:03;4.72;;;2.53;;
74593;SDS011;63097;51.872;4.460;2023-03-12T02:17:29;7.60;;;2.65;;
74593;SDS011;63097;51.872;4.460;2023-03-12T02:20:00;7.85;;;2.88;;
74593;SDS011;63097;51.872;4.460;2023-03-12T02:22:45;7.45;;;2.90;;
74593;SDS011;63097;51.872;4.460;2023-03-12T02:27:59;10.20;;;2.75;;
74593;SDS011;63097;51.872;4.460;2023-03-12T02:30:27;9.52;;;2.92;;
74593;SDS011;63097;51.872;4.460;2023-03-12T02:32:54;11.23;;;3.15;;
74593;SDS011;63097;51.872;4.460;2023-03-12T02:35:20;5.60;;;2.22;;
74593;SDS011;63097;51.872;4.460;2023-03-12T02:37:46;8.70;;;3.00;;
74593;SDS011;63097;51.872;4.460;2023-03-12T02:43:01;7.63;;;3.00;;
74593;SDS011;63097;51.872;4.460;2023-03-12T02:45:29;5.82;;;2.58;;
74593;SDS011;63097;51.872;4.460;2023-03-12T02:47:55;5.63;;;2.72;;
74593;SDS011;63097;51.872;4.460;2023-03-12T02:50:20;4.85;;;2.75;;
74593;SDS011;63097;51.872;4.460;2023-03-12T02:52:45;9.52;;;2.90;;
74593;SDS011;63097;51.872;4.460;2023-03-12T02:55:11;7.80;;;2.80;;
74593;SDS011;63097;51.872;4.460;2023-03-12T02:57:36;5.55;;;2.97;;
74593;SDS011;63097;51.872;4.460;2023-03-12T03:00:05;11.10;;;2.97;;
74593;SDS011;63097;51.872;4.460;2023-03-12T03:02:31;6.82;;;2.50;;
74593;SDS011;63097;51.872;4.460;2023-03-12T03:04:57;6.63;;;2.50;;
74593;SDS011;63097;51.872;4.460;2023-03-12T03:07:22;7.50;;;2.97;;
74593;SDS011;63097;51.872;4.460;2023-03-12T03:09:47;5.40;;;2.38;;
74593;SDS011;63097;51.872;4.460;2023-03-12T03:12:13;11.13;;;3.17;;
74593;SDS011;63097;51.872;4.460;2023-03-12T03:14:38;9.73;;;2.97;;
74593;SDS011;63097;51.872;4.460;2023-03-12T03:17:03;13.77;;;2.92;;
74593;SDS011;63097;51.872;4.460;2023-03-12T03:19:29;9.38;;;2.83;;
74593;SDS011;63097;51.872;4.460;2023-03-12T03:21:54;13.63;;;2.55;;
74593;SDS011;63097;51.872;4.460;2023-03-12T03:24:19;8.65;;;3.10;;
74593;SDS011;63097;51.872;4.460;2023-03-12T03:26:45;7.72;;;2.78;;
74593;SDS011;63097;51.872;4.460;2023-03-12T03:29:10;4.63;;;2.25;;
74593;SDS011;63097;51.872;4.460;2023-03-12T03:31:36;9.05;;;2.90;;
74593;SDS011;63097;51.872;4.460;2023-03-12T03:34:01;6.57;;;2.67;;
74593;SDS011;63097;51.872;4.460;2023-03-12T03:36:26;8.10;;;3.42;;
74593;SDS011;63097;51.872;4.460;2023-03-12T03:38:52;11.73;;;3.15;;
74593;SDS011;63097;51.872;4.460;2023-03-12T03:41:17;6.07;;;2.35;;
74593;SDS011;63097;51.872;4.460;2023-03-12T03:43:44;9.23;;;3.22;;
74593;SDS011;63097;51.872;4.460;2023-03-12T03:46:10;5.28;;;1.88;;
74593;SDS011;63097;51.872;4.460;2023-03-12T03:48:37;7.97;;;3.30;;
74593;SDS011;63097;51.872;4.460;2023-03-12T03:51:03;5.50;;;2.22;;
74593;SDS011;63097;51.872;4.460;2023-03-12T03:53:30;13.23;;;3.22;;
74593;SDS011;63097;51.872;4.460;2023-03-12T03:55:56;10.05;;;3.28;;
74593;SDS011;63097;51.872;4.460;2023-03-12T03:58:21;17.38;;;3.97;;
74593;SDS011;63097;51.872;4.460;2023-03-12T04:00:47;14.27;;;3.70;;
74593;SDS011;63097;51.872;4.460;2023-03-12T04:03:13;8.27;;;3.03;;
74593;SDS011;63097;51.872;4.460;2023-03-12T04:05:38;4.60;;;2.38;;
74593;SDS011;63097;51.872;4.460;2023-03-12T04:08:05;7.63;;;3.72;;
74593;SDS011;63097;51.872;4.460;2023-03-12T04:10:30;10.65;;;3.08;;
74593;SDS011;63097;51.872;4.460;2023-03-12T04:12:56;10.25;;;3.92;;
74593;SDS011;63097;51.872;4.460;2023-03-12T04:15:22;10.43;;;3.70;;
74593;SDS011;63097;51.872;4.460;2023-03-12T04:17:47;13.13;;;4.25;;
74593;SDS011;63097;51.872;4.460;2023-03-12T04:20:12;7.20;;;3.85;;
74593;SDS011;63097;51.872;4.460;2023-03-12T04:22:38;9.48;;;4.25;;
74593;SDS011;63097;51.872;4.460;2023-03-12T04:25:04;9.25;;;3.22;;
74593;SDS011;63097;51.872;4.460;2023-03-12T04:27:30;10.60;;;4.15;;
74593;SDS011;63097;51.872;4.460;2023-03-12T04:29:55;9.10;;;3.83;;
74593;SDS011;63097;51.872;4.460;2023-03-12T04:32:21;10.23;;;3.80;;
74593;SDS011;63097;51.872;4.460;2023-03-12T04:34:46;11.30;;;3.88;;
74593;SDS011;63097;51.872;4.460;2023-03-12T04:37:11;10.75;;;5.00;;
74593;SDS011;63097;51.872;4.460;2023-03-12T04:39:37;16.05;;;4.80;;
74593;SDS011;63097;51.872;4.460;2023-03-12T04:42:02;9.73;;;4.32;;
74593;SDS011;63097;51.872;4.460;2023-03-12T04:44:27;7.30;;;4.10;;
74593;SDS011;63097;51.872;4.460;2023-03-12T04:46:53;5.85;;;3.53;;
74593;SDS011;63097;51.872;4.460;2023-03-12T04:49:18;15.10;;;5.05;;
74593;SDS011;63097;51.872;4.460;2023-03-12T04:51:43;7.50;;;3.85;;
74593;SDS011;63097;51.872;4.460;2023-03-12T04:54:09;3.00;;;1.85;;
74593;SDS011;63097;51.872;4.460;2023-03-12T04:56:34;5.72;;;3.13;;
74593;SDS011;63097;51.872;4.460;2023-03-12T04:58:59;4.88;;;2.67;;
74593;SDS011;63097;51.872;4.460;2023-03-12T05:01:26;9.45;;;4.82;;
74593;SDS011;63097;51.872;4.460;2023-03-12T05:03:53;5.90;;;3.70;;
74593;SDS011;63097;51.872;4.460;2023-03-12T05:06:19;12.35;;;4.50;;
74593;SDS011;63097;51.872;4.460;2023-03-12T05:08:45;14.38;;;5.80;;
74593;SDS011;63097;51.872;4.460;2023-03-12T05:11:12;9.30;;;3.00;;
74593;SDS011;63097;51.872;4.460;2023-03-12T05:13:38;11.65;;;4.68;;
74593;SDS011;63097;51.872;4.460;2023-03-12T05:16:03;7.57;;;4.22;;
74593;SDS011;63097;51.872;4.460;2023-03-12T05:18:29;10.02;;;4.05;;
74593;SDS011;63097;51.872;4.460;2023-03-12T05:21:01;12.75;;;5.43;;
74593;SDS011;63097;51.872;4.460;2023-03-12T05:23:29;11.00;;;3.60;;
74593;SDS011;63097;51.872;4.460;2023-03-12T05:25:55;7.60;;;3.53;;
74593;SDS011;63097;51.872;4.460;2023-03-12T05:28:20;17.52;;;5.65;;
74593;SDS011;63097;51.872;4.460;2023-03-12T05:30:46;9.00;;;4.60;;
74593;SDS011;63097;51.872;4.460;2023-03-12T05:33:12;15.60;;;5.75;;
74593;SDS011;63097;51.872;4.460;2023-03-12T05:35:37;11.27;;;3.83;;
74593;SDS011;63097;51.872;4.460;2023-03-12T05:38:02;9.55;;;5.15;;
74593;SDS011;63097;51.872;4.460;2023-03-12T05:40:29;9.15;;;5.47;;
74593;SDS011;63097;51.872;4.460;2023-03-12T05:42:54;7.85;;;4.30;;
74593;SDS011;63097;51.872;4.460;2023-03-12T05:45:20;10.18;;;5.95;;
74593;SDS011;63097;51.872;4.460;2023-03-12T05:47:45;17.67;;;5.85;;
74593;SDS011;63097;51.872;4.460;2023-03-12T05:50:10;13.82;;;6.07;;
74593;SDS011;63097;51.872;4.460;2023-03-12T05:52:36;19.13;;;6.47;;
74593;SDS011;63097;51.872;4.460;2023-03-12T05:55:01;12.48;;;5.97;;
74593;SDS011;63097;51.872;4.460;2023-03-12T05:57:26;10.05;;;6.03;;
74593;SDS011;63097;51.872;4.460;2023-03-12T05:59:52;4.05;;;2.55;;
74593;SDS011;63097;51.872;4.460;2023-03-12T06:02:17;13.60;;;6.07;;
74593;SDS011;63097;51.872;4.460;2023-03-12T06:04:43;14.85;;;6.63;;
74593;SDS011;63097;51.872;4.460;2023-03-12T06:07:09;7.35;;;4.25;;
74593;SDS011;63097;51.872;4.460;2023-03-12T06:09:34;7.85;;;4.55;;
74593;SDS011;63097;51.872;4.460;2023-03-12T06:12:00;13.45;;;6.47;;
74593;SDS011;63097;51.872;4.460;2023-03-12T06:14:25;13.45;;;6.63;;
74593;SDS011;63097;51.872;4.460;2023-03-12T06:16:51;17.38;;;6.88;;
74593;SDS011;63097;51.872;4.460;2023-03-12T06:19:16;13.85;;;7.00;;
74593;SDS011;63097;51.872;4.460;2023-03-12T06:21:41;14.65;;;6.07;;
74593;SDS011;63097;51.872;4.460;2023-03-12T06:24:07;16.10;;;5.68;;
74593;SDS011;63097;51.872;4.460;2023-03-12T06:26:33;9.80;;;6.57;;
74593;SDS011;63097;51.872;4.460;2023-03-12T06:28:58;12.50;;;7.28;;
74593;SDS011;63097;51.872;4.460;2023-03-12T06:31:23;11.20;;;6.75;;
74593;SDS011;63097;51.872;4.460;2023-03-12T06:33:49;12.90;;;6.50;;
74593;SDS011;63097;51.872;4.460;2023-03-12T06:36:14;15.00;;;6.05;;
74593;SDS011;63097;51.872;4.460;2023-03-12T06:38:39;9.20;;;6.00;;
74593;SDS011;63097;51.872;4.460;2023-03-12T06:41:07;14.05;;;7.50;;
74593;SDS011;63097;51.872;4.460;2023-03-12T06:43:37;10.82;;;6.85;;
74593;SDS011;63097;51.872;4.460;2023-03-12T06:46:04;11.13;;;6.22;;
74593;SDS011;63097;51.872;4.460;2023-03-12T06:48:32;3.85;;;2.90;;
74593;SDS011;63097;51.872;4.460;2023-03-12T06:50:58;10.90;;;5.88;;
74593;SDS011;63097;51.872;4.460;2023-03-12T06:53:24;15.48;;;6.57;;
74593;SDS011;63097;51.872;4.460;2023-03-12T06:55:49;16.52;;;4.75;;
74593;SDS011;63097;51.872;4.460;2023-03-12T06:58:15;13.82;;;5.97;;
74593;SDS011;63097;51.872;4.460;2023-03-12T07:00:41;14.05;;;7.70;;
74593;SDS011;63097;51.872;4.460;2023-03-12T07:03:06;11.88;;;7.53;;
74593;SDS011;63097;51.872;4.460;2023-03-12T07:05:32;15.57;;;8.57;;
74593;SDS011;63097;51.872;4.460;2023-03-12T07:07:57;15.07;;;8.65;;
74593;SDS011;63097;51.872;4.460;2023-03-12T07:10:23;6.85;;;4.90;;
74593;SDS011;63097;51.872;4.460;2023-03-12T07:12:48;16.42;;;9.98;;
74593;SDS011;63097;51.872;4.460;2023-03-12T07:15:14;16.80;;;7.93;;
74593;SDS011;63097;51.872;4.460;2023-03-12T07:17:39;23.08;;;11.20;;
74593;SDS011;63097;51.872;4.460;2023-03-12T07:20:05;20.20;;;10.15;;
74593;SDS011;63097;51.872;4.460;2023-03-12T07:22:30;19.08;;;9.32;;
74593;SDS011;63097;51.872;4.460;2023-03-12T07:24:56;21.52;;;11.07;;
74593;SDS011;63097;51.872;4.460;2023-03-12T07:27:21;25.52;;;9.77;;
74593;SDS011;63097;51.872;4.460;2023-03-12T07:29:46;24.58;;;11.88;;
74593;SDS011;63097;51.872;4.460;2023-03-12T07:32:12;18.83;;;9.45;;
74593;SDS011;63097;51.872;4.460;2023-03-12T07:34:37;21.05;;;11.02;;
74593;SDS011;63097;51.872;4.460;2023-03-12T07:37:02;27.73;;;13.05;;
74593;SDS011;63097;51.872;4.460;2023-03-12T07:39:28;18.77;;;8.07;;
74593;SDS011;63097;51.872;4.460;2023-03-12T07:41:53;25.83;;;11.10;;
74593;SDS011;63097;51.872;4.460;2023-03-12T07:44:19;26.55;;;13.02;;
74593;SDS011;63097;51.872;4.460;2023-03-12T07:46:44;18.60;;;8.95;;
74593;SDS011;63097;51.872;4.460;2023-03-12T07:49:09;35.60;;;14.23;;
74593;SDS011;63097;51.872;4.460;2023-03-12T07:51:35;31.08;;;15.45;;
74593;SDS011;63097;51.872;4.460;2023-03-12T07:54:00;33.33;;;15.55;;
74593;SDS011;63097;51.872;4.460;2023-03-12T07:56:26;28.70;;;11.82;;
74593;SDS011;63097;51.872;4.460;2023-03-12T07:58:51;31.80;;;15.43;;
74593;SDS011;63097;51.872;4.460;2023-03-12T08:01:16;32.58;;;16.17;;
74593;SDS011;63097;51.872;4.460;2023-03-12T08:03:42;29.27;;;15.57;;
74593;SDS011;63097;51.872;4.460;2023-03-12T08:06:07;39.65;;;18.25;;
74593;SDS011;63097;51.872;4.460;2023-03-12T08:08:33;39.40;;;17.17;;
74593;SDS011;63097;51.872;4.460;2023-03-12T08:10:58;38.22;;;18.05;;
74593;SDS011;63097;51.872;4.460;2023-03-12T08:13:24;28.67;;;12.25;;
74593;SDS011;63097;51.872;4.460;2023-03-12T08:15:50;41.15;;;19.83;;
74593;SDS011;63097;51.872;4.460;2023-03-12T08:18:17;40.85;;;17.88;;
74593;SDS011;63097;51.872;4.460;2023-03-12T08:20:43;41.28;;;18.10;;
74593;SDS011;63097;51.872;4.460;2023-03-12T08:23:08;41.15;;;18.52;;
74593;SDS011;63097;51.872;4.460;2023-03-12T08:25:34;42.97;;;17.85;;
74593;SDS011;63097;51.872;4.460;2023-03-12T08:27:59;39.22;;;17.88;;
74593;SDS011;63097;51.872;4.460;2023-03-12T08:30:25;39.67;;;18.52;;
74593;SDS011;63097;51.872;4.460;2023-03-12T08:32:50;29.20;;;12.15;;
74593;SDS011;63097;51.872;4.460;2023-03-12T08:35:15;43.53;;;16.10;;
74593;SDS011;63097;51.872;4.460;2023-03-12T08:37:41;38.28;;;18.98;;
74593;SDS011;63097;51.872;4.460;2023-03-12T08:40:06;35.00;;;16.45;;
74593;SDS011;63097;51.872;4.460;2023-03-12T08:42:32;36.13;;;14.88;;
74593;SDS011;63097;51.872;4.460;2023-03-12T08:44:58;38.22;;;14.88;;
74593;SDS011;63097;51.872;4.460;2023-03-12T08:47:23;29.15;;;15.23;;
74593;SDS011;63097;51.872;4.460;2023-03-12T08:49:48;33.72;;;15.23;;
74593;SDS011;63097;51.872;4.460;2023-03-12T08:52:14;24.40;;;12.45;;
74593;SDS011;63097;51.872;4.460;2023-03-12T08:54:39;30.48;;;12.18;;
74593;SDS011;63097;51.872;4.460;2023-03-12T08:57:04;26.58;;;12.73;;
74593;SDS011;63097;51.872;4.460;2023-03-12T08:59:30;25.60;;;10.50;;
74593;SDS011;63097;51.872;4.460;2023-03-12T09:01:55;21.02;;;10.35;;
74593;SDS011;63097;51.872;4.460;2023-03-12T09:04:20;22.90;;;9.85;;
74593;SDS011;63097;51.872;4.460;2023-03-12T09:06:45;23.02;;;7.47;;
74593;SDS011;63097;51.872;4.460;2023-03-12T09:09:11;23.67;;;9.38;;
74593;SDS011;63097;51.872;4.460;2023-03-12T09:11:36;22.77;;;9.00;;
74593;SDS011;63097;51.872;4.460;2023-03-12T09:14:02;27.05;;;9.60;;
74593;SDS011;63097;51.872;4.460;2023-03-12T09:16:28;21.77;;;7.70;;
74593;SDS011;63097;51.872;4.460;2023-03-12T09:18:53;31.60;;;8.38;;
74593;SDS011;63097;51.872;4.460;2023-03-12T09:21:19;30.80;;;8.02;;
74593;SDS011;63097;51.872;4.460;2023-03-12T09:23:45;19.83;;;6.50;;
74593;SDS011;63097;51.872;4.460;2023-03-12T09:26:10;27.50;;;6.05;;
74593;SDS011;63097;51.872;4.460;2023-03-12T09:28:36;21.30;;;5.60;;
74593;SDS011;63097;51.872;4.460;2023-03-12T09:31:02;31.52;;;5.45;;
74593;SDS011;63097;51.872;4.460;2023-03-12T09:33:27;22.35;;;4.50;;
74593;SDS011;63097;51.872;4.460;2023-03-12T09:35:57;25.98;;;4.68;;
74593;SDS011;63097;51.872;4.460;2023-03-12T09:38:23;26.48;;;4.45;;
74593;SDS011;63097;51.872;4.460;2023-03-12T09:40:49;27.58;;;4.57;;
74593;SDS011;63097;51.872;4.460;2023-03-12T09:46:10;32.60;;;4.90;;
74593;SDS011;63097;51.872;4.460;2023-03-12T09:48:39;24.45;;;5.13;;
74593;SDS011;63097;51.872;4.460;2023-03-12T09:51:13;26.85;;;3.83;;
74593;SDS011;63097;51.872;4.460;2023-03-12T09:53:47;23.75;;;4.60;;
74593;SDS011;63097;51.872;4.460;2023-03-12T09:56:24;28.92;;;3.40;;
74593;SDS011;63097;51.872;4.460;2023-03-12T09:58:50;20.88;;;3.17;;
74593;SDS011;63097;51.872;4.460;2023-03-12T10:04:00;23.05;;;4.07;;
74593;SDS011;63097;51.872;4.460;2023-03-12T10:09:49;30.23;;;3.90;;
74593;SDS011;63097;51.872;4.460;2023-03-12T10:20:50;28.35;;;4.32;;
74593;SDS011;63097;51.872;4.460;2023-03-12T10:25:51;30.77;;;3.70;;
74593;SDS011;63097;51.872;4.460;2023-03-12T10:28:54;29.88;;;3.78;;
74593;SDS011;63097;51.872;4.460;2023-03-12T10:31:26;36.17;;;5.10;;
74593;SDS011;63097;51.872;4.460;2023-03-12T10:33:57;25.50;;;3.90;;
74593;SDS011;63097;51.872;4.460;2023-03-12T10:38:53;34.88;;;3.55;;
74593;SDS011;63097;51.872;4.460;2023-03-12T10:41:22;28.98;;;3.67;;
74593;SDS011;63097;51.872;4.460;2023-03-12T10:43:49;25.42;;;3.30;;
74593;SDS011;63097;51.872;4.460;2023-03-12T10:46:37;48.38;;;5.68;;
74593;SDS011;63097;51.872;4.460;2023-03-12T10:54:44;33.33;;;4.15;;
74593;SDS011;63097;51.872;4.460;2023-03-12T10:57:11;36.10;;;4.32;;
74593;SDS011;63097;51.872;4.460;2023-03-12T10:59:39;35.45;;;4.03;;
74593;SDS011;63097;51.872;4.460;2023-03-12T11:02:28;30.17;;;3.47;;
74593;SDS011;63097;51.872;4.460;2023-03-12T11:04:55;32.55;;;3.58;;
74593;SDS011;63097;51.872;4.460;2023-03-12T11:07:32;42.60;;;4.72;;
74593;SDS011;63097;51.872;4.460;2023-03-12T11:12:30;35.25;;;5.60;;
74593;SDS011;63097;51.872;4.460;2023-03-12T11:14:56;35.90;;;4.40;;
74593;SDS011;63097;51.872;4.460;2023-03-12T11:17:26;34.53;;;4.00;;
74593;SDS011;63097;51.872;4.460;2023-03-12T11:19:53;41.72;;;4.40;;
74593;SDS011;63097;51.872;4.460;2023-03-12T11:22:29;44.83;;;5.13;;
74593;SDS011;63097;51.872;4.460;2023-03-12T11:25:00;32.92;;;3.30;;
74593;SDS011;63097;51.872;4.460;2023-03-12T11:27:35;36.58;;;4.45;;
74593;SDS011;63097;51.872;4.460;2023-03-12T11:30:05;37.05;;;4.88;;
74593;SDS011;63097;51.872;4.460;2023-03-12T11:32:36;29.83;;;4.10;;
74593;SDS011;63097;51.872;4.460;2023-03-12T11:35:15;44.60;;;4.18;;
74593;SDS011;63097;51.872;4.460;2023-03-12T11:46:42;32.60;;;3.95;;
74593;SDS011;63097;51.872;4.460;2023-03-12T11:49:32;43.00;;;4.20;;
74593;SDS011;63097;51.872;4.460;2023-03-12T11:57:32;35.80;;;4.57;;
74593;SDS011;63097;51.872;4.460;2023-03-12T12:08:00;23.25;;;3.28;;
74593;SDS011;63097;51.872;4.460;2023-03-12T12:16:22;44.97;;;5.28;;
74593;SDS011;63097;51.872;4.460;2023-03-12T12:19:06;44.72;;;5.50;;
74593;SDS011;63097;51.872;4.460;2023-03-12T12:22:46;22.52;;;3.30;;
74593;SDS011;63097;51.872;4.460;2023-03-12T12:27:40;36.47;;;5.68;;
74593;SDS011;63097;51.872;4.460;2023-03-12T12:30:20;28.02;;;3.50;;
74593;SDS011;63097;51.872;4.460;2023-03-12T12:35:58;22.92;;;4.35;;
74593;SDS011;63097;51.872;4.460;2023-03-12T12:38:29;36.28;;;3.50;;
74593;SDS011;63097;51.872;4.460;2023-03-12T12:41:05;33.90;;;3.83;;
74593;SDS011;63097;51.872;4.460;2023-03-12T12:43:38;39.30;;;4.65;;
74593;SDS011;63097;51.872;4.460;2023-03-12T12:46:16;33.45;;;4.50;;
74593;SDS011;63097;51.872;4.460;2023-03-12T12:48:55;21.52;;;3.22;;
74593;SDS011;63097;51.872;4.460;2023-03-12T12:51:49;32.08;;;4.28;;
74593;SDS011;63097;51.872;4.460;2023-03-12T12:59:33;32.17;;;3.65;;
74593;SDS011;63097;51.872;4.460;2023-03-12T13:02:21;18.77;;;2.40;;
74593;SDS011;63097;51.872;4.460;2023-03-12T13:04:49;32.20;;;4.25;;
74593;SDS011;63097;51.872;4.460;2023-03-12T13:18:00;38.60;;;4.13;;
74593;SDS011;63097;51.872;4.460;2023-03-12T13:36:43;38.05;;;4.63;;
74593;SDS011;63097;51.872;4.460;2023-03-12T13:39:28;40.55;;;4.45;;
74593;SDS011;63097;51.872;4.460;2023-03-12T13:42:01;33.50;;;4.53;;
74593;SDS011;63097;51.872;4.460;2023-03-12T13:44:48;30.65;;;3.70;;
74593;SDS011;63097;51.872;4.460;2023-03-12T13:47:30;34.05;;;4.30;;
74593;SDS011;63097;51.872;4.460;2023-03-12T13:50:04;21.65;;;3.50;;
74593;SDS011;63097;51.872;4.460;2023-03-12T13:55:14;33.78;;;5.68;;
74593;SDS011;63097;51.872;4.460;2023-03-12T13:57:49;26.60;;;3.15;;
74593;SDS011;63097;51.872;4.460;2023-03-12T14:00:29;43.47;;;4.80;;
74593;SDS011;63097;51.872;4.460;2023-03-12T14:03:17;27.42;;;3.70;;
74593;SDS011;63097;51.872;4.460;2023-03-12T14:14:28;29.20;;;3.65;;
74593;SDS011;63097;51.872;4.460;2023-03-12T14:17:02;23.67;;;3.50;;
74593;SDS011;63097;51.872;4.460;2023-03-12T14:19:29;41.45;;;4.93;;
74593;SDS011;63097;51.872;4.460;2023-03-12T14:21:59;30.50;;;4.07;;
74593;SDS011;63097;51.872;4.460;2023-03-12T14:27:03;32.33;;;4.82;;
74593;SDS011;63097;51.872;4.460;2023-03-12T14:29:34;42.95;;;6.28;;
74593;SDS011;63097;51.872;4.460;2023-03-12T14:32:03;41.75;;;4.38;;
74593;SDS011;63097;51.872;4.460;2023-03-12T14:34:40;38.53;;;5.05;;
74593;SDS011;63097;51.872;4.460;2023-03-12T14:39:42;44.33;;;5.10;;
74593;SDS011;63097;51.872;4.460;2023-03-12T14:42:09;44.63;;;5.03;;
74593;SDS011;63097;51.872;4.460;2023-03-12T14:44:42;37.33;;;5.85;;
74593;SDS011;63097;51.872;4.460;2023-03-12T14:47:23;50.10;;;5.88;;
74593;SDS011;63097;51.872;4.460;2023-03-12T14:49:48;43.22;;;6.07;;
74593;SDS011;63097;51.872;4.460;2023-03-12T14:52:20;25.08;;;3.20;;
74593;SDS011;63097;51.872;4.460;2023-03-12T14:54:54;51.35;;;6.50;;
74593;SDS011;63097;51.872;4.460;2023-03-12T14:57:22;49.10;;;5.82;;
74593;SDS011;63097;51.872;4.460;2023-03-12T14:59:54;37.65;;;4.60;;
74593;SDS011;63097;51.872;4.460;2023-03-12T15:02:21;41.03;;;4.28;;
74593;SDS011;63097;51.872;4.460;2023-03-12T15:04:48;46.67;;;4.90;;
74593;SDS011;63097;51.872;4.460;2023-03-12T15:07:18;41.33;;;5.10;;
74593;SDS011;63097;51.872;4.460;2023-03-12T15:09:48;47.38;;;4.70;;
74593;SDS011;63097;51.872;4.460;2023-03-12T15:12:22;46.05;;;5.45;;
74593;SDS011;63097;51.872;4.460;2023-03-12T15:15:00;41.55;;;5.20;;
74593;SDS011;63097;51.872;4.460;2023-03-12T15:17:30;49.28;;;5.20;;
74593;SDS011;63097;51.872;4.460;2023-03-12T15:19:57;47.50;;;6.05;;
74593;SDS011;63097;51.872;4.460;2023-03-12T15:22:24;42.05;;;5.10;;
74593;SDS011;63097;51.872;4.460;2023-03-12T15:24:50;47.70;;;5.50;;
74593;SDS011;63097;51.872;4.460;2023-03-12T15:29:50;37.88;;;4.05;;
74593;SDS011;63097;51.872;4.460;2023-03-12T15:32:17;46.50;;;4.97;;
74593;SDS011;63097;51.872;4.460;2023-03-12T15:34:44;48.72;;;6.10;;
74593;SDS011;63097;51.872;4.460;2023-03-12T15:39:59;48.97;;;5.07;;
74593;SDS011;63097;51.872;4.460;2023-03-12T15:42:27;46.67;;;5.25;;
74593;SDS011;63097;51.872;4.460;2023-03-12T15:44:57;46.80;;;5.40;;
74593;SDS011;63097;51.872;4.460;2023-03-12T15:47:28;48.95;;;5.95;;
74593;SDS011;63097;51.872;4.460;2023-03-12T15:49:57;41.35;;;4.25;;
74593;SDS011;63097;51.872;4.460;2023-03-12T15:52:33;39.90;;;4.93;;
74593;SDS011;63097;51.872;4.460;2023-03-12T15:55:01;40.40;;;4.72;;
74593;SDS011;63097;51.872;4.460;2023-03-12T15:57:27;52.42;;;6.05;;
74593;SDS011;63097;51.872;4.460;2023-03-12T16:02:37;45.42;;;5.32;;
74593;SDS011;63097;51.872;4.460;2023-03-12T16:05:03;52.28;;;6.60;;
74593;SDS011;63097;51.872;4.460;2023-03-12T16:07:28;38.60;;;5.72;;
74593;SDS011;63097;51.872;4.460;2023-03-12T16:09:54;43.45;;;5.93;;
74593;SDS011;63097;51.872;4.460;2023-03-12T16:12:20;53.75;;;6.03;;
74593;SDS011;63097;51.872;4.460;2023-03-12T16:14:45;41.22;;;4.72;;
74593;SDS011;63097;51.872;4.460;2023-03-12T16:17:12;46.38;;;5.53;;
74593;SDS011;63097;51.872;4.460;2023-03-12T16:19:39;40.47;;;5.63;;
74593;SDS011;63097;51.872;4.460;2023-03-12T16:22:04;41.13;;;4.63;;
74593;SDS011;63097;51.872;4.460;2023-03-12T16:24:30;47.40;;;6.22;;
74593;SDS011;63097;51.872;4.460;2023-03-12T16:26:58;38.65;;;4.15;;
74593;SDS011;63097;51.872;4.460;2023-03-12T16:29:31;50.15;;;3.83;;
74593;SDS011;63097;51.872;4.460;2023-03-12T16:31:59;29.25;;;3.45;;
74593;SDS011;63097;51.872;4.460;2023-03-12T16:34:25;23.45;;;2.97;;
74593;SDS011;63097;51.872;4.460;2023-03-12T16:36:50;25.65;;;3.13;;
74593;SDS011;63097;51.872;4.460;2023-03-12T16:39:16;26.45;;;2.70;;
74593;SDS011;63097;51.872;4.460;2023-03-12T16:41:41;18.58;;;2.72;;
74593;SDS011;63097;51.872;4.460;2023-03-12T16:44:07;25.35;;;3.05;;
74593;SDS011;63097;51.872;4.460;2023-03-12T16:46:37;25.88;;;3.35;;
74593;SDS011;63097;51.872;4.460;2023-03-12T16:49:03;25.83;;;3.45;;
74593;SDS011;63097;51.872;4.460;2023-03-12T16:51:28;21.27;;;2.72;;